createdAt,value
2022-11-01T00:04:22.110Z,91.28
2022-11-01T00:09:26.538Z,97.90
2022-11-01T00:14:29.759Z,97.00
2022-11-01T00:19:33.048Z,91.40
2022-11-01T00:24:37.596Z,100.20
2022-11-01T00:29:40.819Z,89.83
2022-11-01T00:34:43.869Z,89.60
2022-11-01T00:39:48.279Z,90.90
2022-11-01T00:44:51.471Z,88.07
2022-11-01T00:49:54.691Z,84.40
2022-11-01T00:54:59.349Z,87.45
2022-11-01T01:00:02.661Z,95.13
2022-11-01T01:05:07.198Z,93.50
2022-11-01T01:10:11.643Z,89.53
2022-11-01T01:15:15.171Z,99.70
2022-11-01T01:20:18.671Z,93.50
2022-11-01T01:25:23.635Z,102.07
2022-11-01T01:30:26.763Z,91.38
2022-11-01T01:35:29.927Z,97.82
2022-11-01T01:40:35.127Z,96.53
2022-11-01T01:50:47.736Z,82.70
2022-11-01T01:55:57.645Z,90.55
2022-11-01T02:01:01.283Z,93.78
2022-11-01T02:06:09.215Z,95.57
2022-11-01T02:11:15.312Z,91.38
2022-11-01T02:16:37.866Z,98.60
2022-11-01T02:21:51.287Z,107.35
2022-11-01T02:27:10.500Z,96.28
2022-11-01T02:32:22.477Z,100.55
2022-11-01T02:37:30.010Z,88.00
2022-11-01T02:42:37.482Z,80.03
2022-11-01T02:47:42.253Z,100.25
2022-11-01T02:52:46.342Z,108.47
2022-11-01T02:57:49.855Z,95.13
2022-11-01T03:03:00.493Z,113.40
2022-11-01T03:08:06.550Z,96.00
2022-11-01T03:13:29.890Z,87.13
2022-11-01T03:18:38.720Z,95.25
2022-11-01T03:23:47.362Z,82.18
2022-11-01T03:34:10.899Z,100.57
2022-11-01T03:39:18.462Z,124.85
2022-11-01T03:44:22.282Z,125.72
2022-11-01T03:49:26.749Z,116.78
2022-11-01T03:54:31.667Z,131.90
2022-11-01T03:59:34.871Z,107.35
2022-11-01T04:04:39.601Z,121.25
2022-11-01T04:09:43.043Z,127.20
2022-11-01T04:15:05.487Z,98.63
2022-11-01T04:20:29.137Z,89.97
2022-11-01T04:25:33.780Z,96.50
2022-11-01T04:30:37.022Z,90.90
2022-11-01T04:35:42.090Z,94.90
2022-11-01T04:45:54.655Z,109.20
2022-11-01T04:51:02.532Z,101.25
2022-11-01T04:56:08.879Z,89.70
2022-11-01T05:01:12.348Z,86.35
2022-11-01T05:06:17.273Z,75.38
2022-11-01T05:11:25.374Z,78.40
2022-11-01T05:16:28.907Z,97.05
2022-11-01T05:21:33.357Z,90.43
2022-11-01T05:26:36.905Z,111.05
2022-11-01T05:31:40.637Z,113.18
2022-11-01T05:36:45.131Z,96.75
2022-11-01T05:41:48.569Z,114.47
2022-11-01T05:46:51.618Z,100.50
2022-11-01T05:59:28.535Z,107.83
2022-11-01T06:04:31.704Z,110.63
2022-11-01T06:09:35.035Z,104.60
2022-11-01T06:14:40.037Z,137.70
2022-11-01T06:19:43.119Z,126.67
2022-11-01T06:24:46.444Z,108.53
2022-11-01T06:29:51.037Z,88.30
2022-11-01T06:41:37.843Z,95.78
2022-11-01T06:46:42.318Z,102.47
2022-11-01T06:51:46.047Z,99.47
2022-11-01T06:56:49.439Z,101.40
2022-11-01T07:01:54.758Z,94.50
2022-11-01T07:06:59.671Z,103.50
2022-11-01T07:12:12.166Z,101.50
2022-11-01T07:17:23.135Z,82.22
2022-11-01T07:22:27.488Z,80.95
2022-11-01T07:27:30.929Z,87.05
2022-11-01T07:32:39.746Z,87.25
2022-11-01T07:37:43.837Z,69.90
2022-11-01T07:42:47.638Z,84.80
2022-11-01T09:02:57.849Z,56.20
2022-11-01T09:08:05.487Z,52.75
2022-11-01T09:13:09.199Z,47.65
2022-11-01T09:18:13.876Z,48.45
2022-11-01T09:23:17.129Z,50.33
2022-11-01T09:28:20.437Z,42.78
2022-11-01T09:33:25.133Z,41.05
2022-11-01T09:38:29.074Z,34.83
2022-11-01T09:43:35.728Z,32.75
2022-11-01T10:04:05.964Z,22.88
2022-11-01T10:09:20.586Z,25.20
2022-11-01T10:14:40.000Z,26.97
2022-11-01T10:27:22.639Z,23.33
2022-11-01T10:32:32.872Z,27.17
2022-11-01T10:37:51.868Z,19.17
2022-11-01T10:43:13.544Z,20.85
2022-11-01T10:48:27.323Z,24.65
2022-11-01T10:53:35.496Z,19.33
2022-11-01T10:58:47.329Z,23.73
2022-11-01T11:03:52.068Z,18.08
2022-11-01T11:08:56.634Z,26.08
2022-11-01T11:14:05.605Z,26.02
2022-11-01T11:19:22.164Z,24.23
2022-11-01T11:24:30.608Z,19.45
2022-11-01T11:29:41.314Z,22.40
2022-11-01T11:34:52.933Z,22.60
2022-11-01T11:40:19.555Z,24.05
2022-11-01T12:18:26.548Z,14.30
2022-11-01T12:23:35.058Z,14.45
2022-11-01T12:28:43.143Z,17.30
2022-11-01T12:33:52.704Z,18.20
2022-11-01T12:39:00.617Z,18.15
2022-11-01T12:44:13.390Z,15.45
2022-11-01T12:49:32.615Z,15.15
2022-11-01T12:54:41.347Z,16.27
2022-11-01T12:59:46.538Z,10.30
2022-11-01T13:04:58.869Z,13.48
2022-11-01T13:10:10.864Z,12.50
2022-11-01T13:15:22.854Z,18.00
2022-11-01T13:20:37.883Z,9.00
2022-11-01T13:25:47.509Z,12.25
2022-11-01T13:30:59.235Z,9.25
2022-11-01T13:36:11.359Z,9.38
2022-11-01T13:41:21.057Z,14.85
2022-11-01T13:46:46.228Z,16.45
2022-11-01T13:51:56.847Z,10.55
2022-11-01T13:57:09.662Z,12.98
2022-11-01T14:02:49.153Z,11.63
2022-11-01T14:08:14.056Z,9.63
2022-11-01T14:13:29.890Z,12.60
2022-11-01T14:19:09.670Z,12.20
2022-11-01T14:24:34.563Z,9.38
2022-11-01T14:29:38.898Z,13.77
2022-11-01T14:34:45.837Z,12.80
2022-11-01T14:40:04.515Z,12.07
2022-11-01T14:45:22.714Z,14.10
2022-11-01T14:58:24.221Z,11.73
2022-11-01T15:03:27.710Z,10.48
2022-11-01T15:08:37.535Z,9.40
2022-11-01T15:13:45.606Z,13.65
2022-11-01T15:18:53.080Z,12.43
2022-11-01T15:23:57.460Z,11.95
2022-11-01T15:29:04.810Z,68.65
2022-11-01T15:34:22.226Z,19.63
2022-11-01T15:39:28.986Z,11.63
2022-11-01T15:44:33.997Z,12.02
2022-11-01T15:49:45.508Z,15.80
2022-11-01T15:54:55.420Z,10.68
2022-11-01T16:00:07.033Z,14.13
2022-11-01T16:05:20.386Z,10.85
2022-11-01T16:10:26.595Z,13.20
2022-11-01T16:15:33.140Z,14.10
2022-11-01T16:20:40.886Z,12.13
2022-11-01T16:25:44.135Z,14.63
2022-11-01T16:30:50.051Z,12.63
2022-11-01T16:35:55.449Z,13.48
2022-11-01T16:46:05.263Z,14.50
2022-11-01T16:51:09.789Z,13.77
2022-11-01T16:56:35.599Z,15.77
2022-11-01T17:01:41.448Z,15.30
2022-11-01T17:06:45.848Z,16.35
2022-11-01T17:11:51.922Z,16.65
2022-11-01T17:16:56.867Z,17.60
2022-11-01T17:22:04.101Z,19.25
2022-11-01T17:27:08.895Z,21.23
2022-11-01T17:32:13.965Z,18.45
2022-11-01T17:37:17.644Z,16.63
2022-11-01T17:42:21.004Z,13.82
2022-11-01T17:47:26.236Z,24.17
2022-11-01T17:52:30.174Z,20.10
2022-11-01T17:57:34.509Z,19.98
2022-11-01T18:02:39.343Z,23.60
2022-11-01T18:07:44.605Z,21.80
2022-11-01T18:12:59.664Z,14.80
2022-11-01T18:18:23.066Z,13.48
2022-11-01T18:23:28.209Z,14.93
2022-11-01T18:28:35.017Z,18.45
2022-11-01T18:33:42.960Z,14.27
2022-11-01T18:38:53.510Z,15.15
2022-11-01T18:43:57.035Z,21.30
2022-11-01T18:49:06.946Z,19.90
2022-11-01T18:54:33.336Z,22.67
2022-11-01T18:59:39.221Z,17.05
2022-11-01T19:04:44.629Z,16.73
2022-11-01T19:09:53.415Z,24.35
2022-11-01T19:15:03.032Z,19.80
2022-11-01T19:20:21.211Z,19.80
2022-11-01T19:25:27.877Z,19.58
2022-11-01T19:30:33.054Z,24.83
2022-11-01T19:35:38.801Z,23.65
2022-11-01T19:40:44.128Z,19.88
2022-11-01T19:45:50.483Z,21.48
2022-11-01T19:50:55.489Z,19.88
2022-11-01T19:56:00.335Z,20.58
2022-11-01T20:01:40.708Z,20.45
2022-11-01T20:06:49.512Z,23.65
2022-11-01T20:11:53.608Z,24.27
2022-11-01T20:16:57.663Z,35.07
2022-11-01T20:22:03.286Z,17.63
2022-11-01T20:27:07.592Z,19.73
2022-11-01T20:32:11.739Z,15.80
2022-11-01T20:37:28.396Z,24.02
2022-11-01T20:42:32.420Z,21.35
2022-11-01T20:47:35.731Z,25.67
2022-11-01T20:52:40.488Z,21.65
2022-11-01T20:57:44.685Z,24.33
2022-11-01T21:02:49.456Z,21.20
2022-11-01T21:07:59.651Z,24.97
2022-11-01T21:13:20.509Z,22.92
2022-11-01T21:18:39.367Z,21.17
2022-11-01T21:23:44.723Z,26.70
2022-11-01T21:28:49.994Z,23.20
2022-11-01T21:39:00.029Z,23.55
2022-11-01T21:44:20.065Z,26.80
2022-11-01T21:49:29.028Z,20.67
2022-11-01T21:54:35.320Z,22.17
2022-11-01T21:59:39.201Z,22.13
2022-11-01T22:04:44.407Z,27.17
2022-11-01T22:09:49.819Z,27.17
2022-11-01T22:14:53.829Z,26.48
2022-11-01T22:19:57.576Z,25.13
2022-11-01T22:25:02.575Z,22.13
2022-11-01T22:30:08.271Z,24.98
2022-11-01T22:35:11.714Z,25.10
2022-11-01T22:40:18.844Z,23.40
2022-11-01T22:45:22.393Z,19.13
2022-11-01T22:50:28.495Z,20.80
2022-11-01T22:55:42.811Z,23.17
2022-11-01T23:00:46.706Z,25.33
2022-11-01T23:05:52.352Z,21.55
2022-11-01T23:10:57.478Z,17.75
2022-11-01T23:16:02.766Z,20.58
2022-11-01T23:21:08.172Z,22.05
2022-11-01T23:26:14.046Z,24.05
2022-11-01T23:31:19.013Z,24.70
2022-11-01T23:36:26.599Z,31.83
2022-11-01T23:41:34.643Z,25.90
2022-11-01T23:46:38.697Z,20.85
2022-11-01T23:51:42.340Z,19.40
2022-11-01T23:56:47.082Z,26.15
